sensor_id;sensor_type;location;lat;lon;timestamp;P1;durP1;ratioP1;P2;durP2;ratioP2
42066;SDS011;27734;47.028;28.820;2022-10-18T00:00:44;61.73;;;31.67;;
42066;SDS011;27734;47.028;28.820;2022-10-18T00:03:35;61.43;;;30.77;;
42066;SDS011;27734;47.028;28.820;2022-10-18T00:06:07;64.33;;;33.57;;
42066;SDS011;27734;47.028;28.820;2022-10-18T00:08:39;57.70;;;30.83;;
42066;SDS011;27734;47.028;28.820;2022-10-18T00:11:10;54.27;;;30.20;;
42066;SDS011;27734;47.028;28.820;2022-10-18T00:13:41;59.70;;;30.03;;
42066;SDS011;27734;47.028;28.820;2022-10-18T00:16:13;57.30;;;29.73;;
42066;SDS011;27734;47.028;28.820;2022-10-18T00:19:03;57.33;;;28.30;;
42066;SDS011;27734;47.028;28.820;2022-10-18T00:21:35;57.53;;;28.70;;
42066;SDS011;27734;47.028;28.820;2022-10-18T00:24:06;58.37;;;29.13;;
42066;SDS011;27734;47.028;28.820;2022-10-18T00:26:37;51.77;;;28.37;;
42066;SDS011;27734;47.028;28.820;2022-10-18T00:29:12;55.35;;;28.45;;
42066;SDS011;27734;47.028;28.820;2022-10-18T00:31:44;58.77;;;30.00;;
42066;SDS011;27734;47.028;28.820;2022-10-18T00:34:15;54.40;;;27.27;;
42066;SDS011;27734;47.028;28.820;2022-10-18T00:36:46;53.40;;;29.20;;
42066;SDS011;27734;47.028;28.820;2022-10-18T00:39:18;56.07;;;29.53;;
42066;SDS011;27734;47.028;28.820;2022-10-18T00:41:50;59.27;;;29.90;;
42066;SDS011;27734;47.028;28.820;2022-10-18T00:47:31;55.27;;;27.70;;
42066;SDS011;27734;47.028;28.820;2022-10-18T00:50:03;57.10;;;28.77;;
42066;SDS011;27734;47.028;28.820;2022-10-18T00:52:36;58.90;;;29.03;;
42066;SDS011;27734;47.028;28.820;2022-10-18T00:55:12;54.50;;;27.65;;
42066;SDS011;27734;47.028;28.820;2022-10-18T00:57:43;53.67;;;28.43;;
42066;SDS011;27734;47.028;28.820;2022-10-18T01:00:15;55.93;;;28.17;;
42066;SDS011;27734;47.028;28.820;2022-10-18T01:02:47;54.20;;;28.23;;
42066;SDS011;27734;47.028;28.820;2022-10-18T01:05:19;53.57;;;28.40;;
42066;SDS011;27734;47.028;28.820;2022-10-18T01:10:53;57.07;;;27.87;;
42066;SDS011;27734;47.028;28.820;2022-10-18T01:13:37;56.00;;;28.90;;
42066;SDS011;27734;47.028;28.820;2022-10-18T01:16:16;57.40;;;30.97;;
42066;SDS011;27734;47.028;28.820;2022-10-18T01:18:54;59.53;;;30.50;;
42066;SDS011;27734;47.028;28.820;2022-10-18T01:21:33;63.57;;;31.47;;
42066;SDS011;27734;47.028;28.820;2022-10-18T01:27:32;62.93;;;32.77;;
42066;SDS011;27734;47.028;28.820;2022-10-18T01:33:16;56.90;;;31.00;;
42066;SDS011;27734;47.028;28.820;2022-10-18T01:35:55;54.63;;;31.53;;
42066;SDS011;27734;47.028;28.820;2022-10-18T01:38:31;57.93;;;30.17;;
42066;SDS011;27734;47.028;28.820;2022-10-18T01:41:04;56.95;;;30.70;;
42066;SDS011;27734;47.028;28.820;2022-10-18T01:43:37;57.83;;;29.77;;
42066;SDS011;27734;47.028;28.820;2022-10-18T01:46:11;58.73;;;30.92;;
42066;SDS011;27734;47.028;28.820;2022-10-18T01:48:47;59.30;;;32.27;;
42066;SDS011;27734;47.028;28.820;2022-10-18T01:51:20;57.20;;;32.57;;
42066;SDS011;27734;47.028;28.820;2022-10-18T01:53:54;61.73;;;31.93;;
42066;SDS011;27734;47.028;28.820;2022-10-18T01:56:28;57.33;;;32.37;;
42066;SDS011;27734;47.028;28.820;2022-10-18T01:59:09;61.77;;;33.67;;
42066;SDS011;27734;47.028;28.820;2022-10-18T02:01:50;60.07;;;32.13;;
42066;SDS011;27734;47.028;28.820;2022-10-18T02:04:30;61.13;;;33.97;;
42066;SDS011;27734;47.028;28.820;2022-10-18T02:07:15;61.67;;;34.83;;
42066;SDS011;27734;47.028;28.820;2022-10-18T02:10:00;66.87;;;36.87;;
42066;SDS011;27734;47.028;28.820;2022-10-18T02:12:37;68.40;;;37.03;;
42066;SDS011;27734;47.028;28.820;2022-10-18T02:15:16;69.00;;;36.77;;
42066;SDS011;27734;47.028;28.820;2022-10-18T02:17:51;71.13;;;37.40;;
42066;SDS011;27734;47.028;28.820;2022-10-18T02:20:27;63.10;;;36.85;;
42066;SDS011;27734;47.028;28.820;2022-10-18T02:22:59;64.87;;;37.37;;
42066;SDS011;27734;47.028;28.820;2022-10-18T02:25:33;63.35;;;37.15;;
42066;SDS011;27734;47.028;28.820;2022-10-18T02:28:05;68.50;;;37.20;;
42066;SDS011;27734;47.028;28.820;2022-10-18T02:30:38;67.03;;;35.93;;
42066;SDS011;27734;47.028;28.820;2022-10-18T02:33:13;61.67;;;36.37;;
42066;SDS011;27734;47.028;28.820;2022-10-18T02:35:48;62.83;;;36.33;;
42066;SDS011;27734;47.028;28.820;2022-10-18T02:38:24;64.23;;;36.23;;
42066;SDS011;27734;47.028;28.820;2022-10-18T02:40:58;62.70;;;35.27;;
42066;SDS011;27734;47.028;28.820;2022-10-18T02:43:29;62.43;;;35.20;;
42066;SDS011;27734;47.028;28.820;2022-10-18T02:46:02;58.70;;;32.40;;
42066;SDS011;27734;47.028;28.820;2022-10-18T02:48:34;54.30;;;31.97;;
42066;SDS011;27734;47.028;28.820;2022-10-18T02:51:05;57.00;;;31.97;;
42066;SDS011;27734;47.028;28.820;2022-10-18T02:53:36;53.23;;;31.63;;
42066;SDS011;27734;47.028;28.820;2022-10-18T02:56:09;47.55;;;28.20;;
42066;SDS011;27734;47.028;28.820;2022-10-18T02:58:40;50.07;;;28.30;;
42066;SDS011;27734;47.028;28.820;2022-10-18T03:01:11;53.50;;;28.70;;
42066;SDS011;27734;47.028;28.820;2022-10-18T03:03:43;51.00;;;28.00;;
42066;SDS011;27734;47.028;28.820;2022-10-18T03:06:14;51.17;;;29.37;;
42066;SDS011;27734;47.028;28.820;2022-10-18T03:08:45;50.60;;;28.30;;
42066;SDS011;27734;47.028;28.820;2022-10-18T03:11:16;49.77;;;28.23;;
42066;SDS011;27734;47.028;28.820;2022-10-18T03:13:47;53.13;;;29.53;;
42066;SDS011;27734;47.028;28.820;2022-10-18T03:16:19;53.50;;;29.37;;
42066;SDS011;27734;47.028;28.820;2022-10-18T03:18:50;50.77;;;28.03;;
42066;SDS011;27734;47.028;28.820;2022-10-18T03:21:21;51.47;;;27.93;;
42066;SDS011;27734;47.028;28.820;2022-10-18T03:23:52;52.87;;;27.73;;
42066;SDS011;27734;47.028;28.820;2022-10-18T03:26:23;48.67;;;28.27;;
42066;SDS011;27734;47.028;28.820;2022-10-18T03:28:54;46.57;;;27.93;;
42066;SDS011;27734;47.028;28.820;2022-10-18T03:31:26;51.27;;;27.53;;
42066;SDS011;27734;47.028;28.820;2022-10-18T03:33:57;50.43;;;28.80;;
42066;SDS011;27734;47.028;28.820;2022-10-18T03:36:28;49.97;;;28.53;;
42066;SDS011;27734;47.028;28.820;2022-10-18T03:39:00;50.53;;;30.03;;
42066;SDS011;27734;47.028;28.820;2022-10-18T03:41:32;56.43;;;29.57;;
42066;SDS011;27734;47.028;28.820;2022-10-18T03:44:03;52.00;;;28.87;;
42066;SDS011;27734;47.028;28.820;2022-10-18T03:46:36;53.50;;;30.17;;
42066;SDS011;27734;47.028;28.820;2022-10-18T03:49:07;49.17;;;27.67;;
42066;SDS011;27734;47.028;28.820;2022-10-18T03:51:38;49.70;;;26.97;;
42066;SDS011;27734;47.028;28.820;2022-10-18T03:54:09;52.83;;;29.37;;
42066;SDS011;27734;47.028;28.820;2022-10-18T03:56:43;49.35;;;28.27;;
42066;SDS011;27734;47.028;28.820;2022-10-18T03:59:15;51.77;;;28.53;;
42066;SDS011;27734;47.028;28.820;2022-10-18T04:01:46;50.60;;;28.67;;
42066;SDS011;27734;47.028;28.820;2022-10-18T04:04:17;52.40;;;28.13;;
42066;SDS011;27734;47.028;28.820;2022-10-18T04:06:48;51.77;;;30.07;;
42066;SDS011;27734;47.028;28.820;2022-10-18T04:09:19;52.97;;;28.80;;
42066;SDS011;27734;47.028;28.820;2022-10-18T04:11:50;52.03;;;28.73;;
42066;SDS011;27734;47.028;28.820;2022-10-18T04:14:22;56.13;;;29.40;;
42066;SDS011;27734;47.028;28.820;2022-10-18T04:16:53;55.03;;;29.43;;
42066;SDS011;27734;47.028;28.820;2022-10-18T04:19:24;54.03;;;29.83;;
42066;SDS011;27734;47.028;28.820;2022-10-18T04:21:55;56.10;;;29.60;;
42066;SDS011;27734;47.028;28.820;2022-10-18T04:24:26;53.73;;;29.50;;
42066;SDS011;27734;47.028;28.820;2022-10-18T04:26:57;55.13;;;29.83;;
42066;SDS011;27734;47.028;28.820;2022-10-18T04:29:29;56.37;;;30.13;;
42066;SDS011;27734;47.028;28.820;2022-10-18T04:32:00;55.70;;;28.67;;
42066;SDS011;27734;47.028;28.820;2022-10-18T04:34:31;58.67;;;29.33;;
42066;SDS011;27734;47.028;28.820;2022-10-18T04:37:02;64.13;;;30.20;;
42066;SDS011;27734;47.028;28.820;2022-10-18T04:39:33;54.23;;;29.47;;
42066;SDS011;27734;47.028;28.820;2022-10-18T04:42:04;63.03;;;30.30;;
42066;SDS011;27734;47.028;28.820;2022-10-18T04:44:35;59.70;;;29.50;;
42066;SDS011;27734;47.028;28.820;2022-10-18T04:47:06;53.17;;;27.70;;
42066;SDS011;27734;47.028;28.820;2022-10-18T04:49:37;57.63;;;29.60;;
42066;SDS011;27734;47.028;28.820;2022-10-18T04:52:09;52.50;;;28.63;;
42066;SDS011;27734;47.028;28.820;2022-10-18T04:54:42;56.85;;;30.05;;
42066;SDS011;27734;47.028;28.820;2022-10-18T04:57:13;63.43;;;33.90;;
42066;SDS011;27734;47.028;28.820;2022-10-18T04:59:44;69.53;;;37.40;;
42066;SDS011;27734;47.028;28.820;2022-10-18T05:02:16;68.97;;;37.43;;
42066;SDS011;27734;47.028;28.820;2022-10-18T05:04:47;73.67;;;39.57;;
42066;SDS011;27734;47.028;28.820;2022-10-18T05:07:18;76.83;;;38.93;;
42066;SDS011;27734;47.028;28.820;2022-10-18T05:09:49;78.57;;;40.60;;
42066;SDS011;27734;47.028;28.820;2022-10-18T05:12:21;78.03;;;40.77;;
42066;SDS011;27734;47.028;28.820;2022-10-18T05:14:52;83.83;;;42.67;;
42066;SDS011;27734;47.028;28.820;2022-10-18T05:17:24;76.97;;;41.83;;
42066;SDS011;27734;47.028;28.820;2022-10-18T05:19:55;78.27;;;40.43;;
42066;SDS011;27734;47.028;28.820;2022-10-18T05:22:27;75.87;;;40.37;;
42066;SDS011;27734;47.028;28.820;2022-10-18T05:24:58;79.17;;;42.30;;
42066;SDS011;27734;47.028;28.820;2022-10-18T05:27:29;78.63;;;42.70;;
42066;SDS011;27734;47.028;28.820;2022-10-18T05:30:01;77.77;;;41.20;;
42066;SDS011;27734;47.028;28.820;2022-10-18T05:32:35;83.03;;;42.63;;
42066;SDS011;27734;47.028;28.820;2022-10-18T05:35:11;74.57;;;41.83;;
42066;SDS011;27734;47.028;28.820;2022-10-18T05:37:45;77.93;;;41.60;;
42066;SDS011;27734;47.028;28.820;2022-10-18T05:40:16;73.40;;;40.80;;
42066;SDS011;27734;47.028;28.820;2022-10-18T05:42:47;79.57;;;40.67;;
42066;SDS011;27734;47.028;28.820;2022-10-18T05:45:21;74.50;;;40.20;;
42066;SDS011;27734;47.028;28.820;2022-10-18T05:47:53;76.63;;;39.03;;
42066;SDS011;27734;47.028;28.820;2022-10-18T05:50:26;77.67;;;40.37;;
42066;SDS011;27734;47.028;28.820;2022-10-18T05:52:57;79.27;;;41.47;;
42066;SDS011;27734;47.028;28.820;2022-10-18T05:55:31;75.90;;;39.17;;
42066;SDS011;27734;47.028;28.820;2022-10-18T05:58:03;74.73;;;37.93;;
42066;SDS011;27734;47.028;28.820;2022-10-18T06:00:35;75.70;;;39.03;;
42066;SDS011;27734;47.028;28.820;2022-10-18T06:03:10;80.93;;;41.83;;
42066;SDS011;27734;47.028;28.820;2022-10-18T06:05:43;82.83;;;40.93;;
42066;SDS011;27734;47.028;28.820;2022-10-18T06:08:15;78.13;;;39.90;;
42066;SDS011;27734;47.028;28.820;2022-10-18T06:10:48;75.07;;;40.27;;
42066;SDS011;27734;47.028;28.820;2022-10-18T06:13:22;70.50;;;39.43;;
42066;SDS011;27734;47.028;28.820;2022-10-18T06:15:55;70.10;;;37.90;;
42066;SDS011;27734;47.028;28.820;2022-10-18T06:18:41;68.50;;;37.67;;
42066;SDS011;27734;47.028;28.820;2022-10-18T06:21:40;75.47;;;38.90;;
42066;SDS011;27734;47.028;28.820;2022-10-18T06:24:50;66.03;;;37.17;;
42066;SDS011;27734;47.028;28.820;2022-10-18T06:27:50;67.83;;;35.63;;
42066;SDS011;27734;47.028;28.820;2022-10-18T06:34:43;66.57;;;36.87;;
42066;SDS011;27734;47.028;28.820;2022-10-18T06:37:48;69.97;;;37.53;;
42066;SDS011;27734;47.028;28.820;2022-10-18T06:44:18;82.67;;;40.17;;
42066;SDS011;27734;47.028;28.820;2022-10-18T06:46:50;85.30;;;40.83;;
42066;SDS011;27734;47.028;28.820;2022-10-18T06:49:28;74.33;;;43.50;;
42066;SDS011;27734;47.028;28.820;2022-10-18T06:52:23;79.33;;;43.87;;
42066;SDS011;27734;47.028;28.820;2022-10-18T06:55:06;82.23;;;42.90;;
42066;SDS011;27734;47.028;28.820;2022-10-18T06:58:13;79.50;;;42.93;;
42066;SDS011;27734;47.028;28.820;2022-10-18T07:01:47;75.42;;;41.50;;
42066;SDS011;27734;47.028;28.820;2022-10-18T07:04:50;79.13;;;38.83;;
42066;SDS011;27734;47.028;28.820;2022-10-18T07:15:48;56.87;;;31.73;;
42066;SDS011;27734;47.028;28.820;2022-10-18T07:18:55;101.63;;;50.23;;
42066;SDS011;27734;47.028;28.820;2022-10-18T07:40:17;52.77;;;28.23;;
42066;SDS011;27734;47.028;28.820;2022-10-18T07:44:08;55.70;;;27.60;;
42066;SDS011;27734;47.028;28.820;2022-10-18T07:49:50;49.63;;;26.77;;
42066;SDS011;27734;47.028;28.820;2022-10-18T07:52:47;49.43;;;25.13;;
42066;SDS011;27734;47.028;28.820;2022-10-18T08:01:30;51.60;;;27.13;;
42066;SDS011;27734;47.028;28.820;2022-10-18T08:04:11;47.17;;;25.67;;
42066;SDS011;27734;47.028;28.820;2022-10-18T08:10:21;46.28;;;25.65;;
42066;SDS011;27734;47.028;28.820;2022-10-18T08:17:53;43.83;;;24.30;;
42066;SDS011;27734;47.028;28.820;2022-10-18T08:24:08;44.40;;;22.60;;
42066;SDS011;27734;47.028;28.820;2022-10-18T08:27:18;29.27;;;12.13;;
42066;SDS011;27734;47.028;28.820;2022-10-18T08:47:23;12.77;;;6.20;;
42066;SDS011;27734;47.028;28.820;2022-10-18T08:50:35;15.27;;;6.30;;
42066;SDS011;27734;47.028;28.820;2022-10-18T08:53:11;18.97;;;6.20;;
42066;SDS011;27734;47.028;28.820;2022-10-18T08:55:49;14.50;;;6.00;;
42066;SDS011;27734;47.028;28.820;2022-10-18T08:58:24;15.27;;;6.03;;
42066;SDS011;27734;47.028;28.820;2022-10-18T09:01:23;14.50;;;5.83;;
42066;SDS011;27734;47.028;28.820;2022-10-18T09:04:33;13.23;;;5.93;;
42066;SDS011;27734;47.028;28.820;2022-10-18T09:07:51;11.23;;;4.87;;
42066;SDS011;27734;47.028;28.820;2022-10-18T09:10:47;13.67;;;5.50;;
42066;SDS011;27734;47.028;28.820;2022-10-18T09:16:59;9.83;;;5.20;;
42066;SDS011;27734;47.028;28.820;2022-10-18T09:19:58;9.57;;;4.80;;
42066;SDS011;27734;47.028;28.820;2022-10-18T09:22:46;13.77;;;5.13;;
42066;SDS011;27734;47.028;28.820;2022-10-18T09:25:40;11.45;;;5.30;;
42066;SDS011;27734;47.028;28.820;2022-10-18T09:28:18;10.47;;;4.67;;
42066;SDS011;27734;47.028;28.820;2022-10-18T09:31:12;11.85;;;5.10;;
42066;SDS011;27734;47.028;28.820;2022-10-18T09:34:12;10.77;;;4.90;;
42066;SDS011;27734;47.028;28.820;2022-10-18T09:36:55;10.77;;;4.40;;
42066;SDS011;27734;47.028;28.820;2022-10-18T09:39:31;12.47;;;5.20;;
42066;SDS011;27734;47.028;28.820;2022-10-18T09:42:06;14.30;;;4.80;;
42066;SDS011;27734;47.028;28.820;2022-10-18T09:44:45;11.57;;;4.90;;
42066;SDS011;27734;47.028;28.820;2022-10-18T09:47:19;14.43;;;5.17;;
42066;SDS011;27734;47.028;28.820;2022-10-18T09:57:34;12.07;;;4.37;;
42066;SDS011;27734;47.028;28.820;2022-10-18T10:00:14;8.27;;;4.50;;
42066;SDS011;27734;47.028;28.820;2022-10-18T10:02:47;12.13;;;4.30;;
42066;SDS011;27734;47.028;28.820;2022-10-18T10:05:20;9.37;;;4.03;;
42066;SDS011;27734;47.028;28.820;2022-10-18T10:07:59;9.83;;;4.33;;
42066;SDS011;27734;47.028;28.820;2022-10-18T10:10:37;11.03;;;4.10;;
42066;SDS011;27734;47.028;28.820;2022-10-18T10:13:28;10.07;;;3.80;;
42066;SDS011;27734;47.028;28.820;2022-10-18T10:16:03;9.30;;;4.60;;
42066;SDS011;27734;47.028;28.820;2022-10-18T10:18:45;9.63;;;4.00;;
42066;SDS011;27734;47.028;28.820;2022-10-18T10:21:23;8.70;;;4.00;;
42066;SDS011;27734;47.028;28.820;2022-10-18T10:23:53;9.93;;;3.90;;
42066;SDS011;27734;47.028;28.820;2022-10-18T10:26:32;9.67;;;3.87;;
42066;SDS011;27734;47.028;28.820;2022-10-18T10:32:30;8.03;;;4.30;;
42066;SDS011;27734;47.028;28.820;2022-10-18T10:35:27;13.47;;;4.43;;
42066;SDS011;27734;47.028;28.820;2022-10-18T10:37:58;9.53;;;4.40;;
42066;SDS011;27734;47.028;28.820;2022-10-18T10:40:39;16.13;;;4.37;;
42066;SDS011;27734;47.028;28.820;2022-10-18T10:43:24;8.73;;;4.23;;
42066;SDS011;27734;47.028;28.820;2022-10-18T10:46:19;9.80;;;4.07;;
42066;SDS011;27734;47.028;28.820;2022-10-18T10:49:02;8.13;;;4.17;;
42066;SDS011;27734;47.028;28.820;2022-10-18T10:51:56;8.88;;;3.72;;
42066;SDS011;27734;47.028;28.820;2022-10-18T10:54:34;8.17;;;3.77;;
42066;SDS011;27734;47.028;28.820;2022-10-18T10:57:18;7.55;;;3.80;;
42066;SDS011;27734;47.028;28.820;2022-10-18T10:59:52;8.53;;;3.85;;
42066;SDS011;27734;47.028;28.820;2022-10-18T11:03:16;9.83;;;3.70;;
42066;SDS011;27734;47.028;28.820;2022-10-18T11:06:04;7.80;;;3.80;;
42066;SDS011;27734;47.028;28.820;2022-10-18T11:12:35;12.07;;;4.00;;
42066;SDS011;27734;47.028;28.820;2022-10-18T11:25:42;9.73;;;3.77;;
42066;SDS011;27734;47.028;28.820;2022-10-18T11:28:38;5.80;;;3.33;;
42066;SDS011;27734;47.028;28.820;2022-10-18T11:31:38;7.93;;;3.67;;
42066;SDS011;27734;47.028;28.820;2022-10-18T11:34:21;7.10;;;3.50;;
42066;SDS011;27734;47.028;28.820;2022-10-18T11:37:23;8.43;;;3.47;;
42066;SDS011;27734;47.028;28.820;2022-10-18T11:47:02;7.40;;;3.57;;
42066;SDS011;27734;47.028;28.820;2022-10-18T11:50:00;8.93;;;3.30;;
42066;SDS011;27734;47.028;28.820;2022-10-18T12:00:23;7.20;;;2.80;;
42066;SDS011;27734;47.028;28.820;2022-10-18T12:03:17;6.47;;;2.90;;
42066;SDS011;27734;47.028;28.820;2022-10-18T12:13:01;7.63;;;3.17;;
42066;SDS011;27734;47.028;28.820;2022-10-18T12:16:32;6.93;;;3.10;;
42066;SDS011;27734;47.028;28.820;2022-10-18T12:19:24;5.37;;;2.90;;
42066;SDS011;27734;47.028;28.820;2022-10-18T12:23:10;5.60;;;2.80;;
42066;SDS011;27734;47.028;28.820;2022-10-18T12:25:44;6.65;;;3.20;;
42066;SDS011;27734;47.028;28.820;2022-10-18T12:28:22;7.47;;;2.87;;
42066;SDS011;27734;47.028;28.820;2022-10-18T12:31:03;6.85;;;2.92;;
42066;SDS011;27734;47.028;28.820;2022-10-18T12:33:55;9.87;;;3.43;;
42066;SDS011;27734;47.028;28.820;2022-10-18T12:37:08;5.87;;;2.80;;
42066;SDS011;27734;47.028;28.820;2022-10-18T12:39:51;8.43;;;3.17;;
42066;SDS011;27734;47.028;28.820;2022-10-18T12:45:50;6.53;;;3.17;;
42066;SDS011;27734;47.028;28.820;2022-10-18T12:48:36;5.17;;;3.00;;
42066;SDS011;27734;47.028;28.820;2022-10-18T12:51:14;7.43;;;2.87;;
42066;SDS011;27734;47.028;28.820;2022-10-18T12:53:48;5.53;;;3.00;;
42066;SDS011;27734;47.028;28.820;2022-10-18T12:56:37;6.77;;;3.10;;
42066;SDS011;27734;47.028;28.820;2022-10-18T13:08:33;8.63;;;3.12;;
42066;SDS011;27734;47.028;28.820;2022-10-18T13:14:20;9.87;;;2.80;;
42066;SDS011;27734;47.028;28.820;2022-10-18T13:17:03;10.00;;;2.90;;
42066;SDS011;27734;47.028;28.820;2022-10-18T13:19:44;6.73;;;3.00;;
42066;SDS011;27734;47.028;28.820;2022-10-18T13:22:31;8.60;;;3.07;;
42066;SDS011;27734;47.028;28.820;2022-10-18T13:25:35;8.27;;;3.10;;
42066;SDS011;27734;47.028;28.820;2022-10-18T13:28:33;7.10;;;3.23;;
42066;SDS011;27734;47.028;28.820;2022-10-18T13:32:04;7.37;;;3.07;;
42066;SDS011;27734;47.028;28.820;2022-10-18T13:38:41;7.23;;;2.90;;
42066;SDS011;27734;47.028;28.820;2022-10-18T13:41:20;7.93;;;2.97;;
42066;SDS011;27734;47.028;28.820;2022-10-18T13:43:57;6.10;;;2.80;;
42066;SDS011;27734;47.028;28.820;2022-10-18T13:50:12;7.77;;;2.80;;
42066;SDS011;27734;47.028;28.820;2022-10-18T13:53:19;6.77;;;2.77;;
42066;SDS011;27734;47.028;28.820;2022-10-18T13:56:15;5.57;;;2.73;;
42066;SDS011;27734;47.028;28.820;2022-10-18T13:59:24;6.03;;;2.97;;
42066;SDS011;27734;47.028;28.820;2022-10-18T14:02:22;5.67;;;2.80;;
42066;SDS011;27734;47.028;28.820;2022-10-18T14:08:21;4.60;;;2.70;;
42066;SDS011;27734;47.028;28.820;2022-10-18T14:11:07;5.53;;;2.53;;
42066;SDS011;27734;47.028;28.820;2022-10-18T14:14:02;9.70;;;2.92;;
42066;SDS011;27734;47.028;28.820;2022-10-18T14:16:37;11.17;;;2.90;;
42066;SDS011;27734;47.028;28.820;2022-10-18T14:19:16;10.57;;;2.70;;
42066;SDS011;27734;47.028;28.820;2022-10-18T14:22:07;6.17;;;2.70;;
42066;SDS011;27734;47.028;28.820;2022-10-18T14:24:48;4.00;;;2.37;;
42066;SDS011;27734;47.028;28.820;2022-10-18T14:27:21;9.35;;;3.02;;
42066;SDS011;27734;47.028;28.820;2022-10-18T14:30:06;5.73;;;2.93;;
42066;SDS011;27734;47.028;28.820;2022-10-18T14:32:44;7.00;;;2.80;;
42066;SDS011;27734;47.028;28.820;2022-10-18T14:35:17;6.77;;;2.90;;
42066;SDS011;27734;47.028;28.820;2022-10-18T14:37:53;5.00;;;3.10;;
42066;SDS011;27734;47.028;28.820;2022-10-18T14:40:29;8.67;;;2.80;;
42066;SDS011;27734;47.028;28.820;2022-10-18T14:43:04;11.43;;;3.13;;
42066;SDS011;27734;47.028;28.820;2022-10-18T14:45:44;8.97;;;2.97;;
42066;SDS011;27734;47.028;28.820;2022-10-18T14:48:15;13.17;;;3.13;;
42066;SDS011;27734;47.028;28.820;2022-10-18T14:50:53;9.07;;;3.33;;
42066;SDS011;27734;47.028;28.820;2022-10-18T14:53:26;6.03;;;3.00;;
42066;SDS011;27734;47.028;28.820;2022-10-18T14:56:01;13.63;;;4.17;;
42066;SDS011;27734;47.028;28.820;2022-10-18T14:58:33;13.07;;;4.10;;
42066;SDS011;27734;47.028;28.820;2022-10-18T15:01:13;23.37;;;5.23;;
42066;SDS011;27734;47.028;28.820;2022-10-18T15:03:44;13.43;;;3.87;;
42066;SDS011;27734;47.028;28.820;2022-10-18T15:06:15;16.93;;;4.43;;
42066;SDS011;27734;47.028;28.820;2022-10-18T15:08:46;16.90;;;4.03;;
42066;SDS011;27734;47.028;28.820;2022-10-18T15:11:19;18.73;;;4.53;;
42066;SDS011;27734;47.028;28.820;2022-10-18T15:13:49;13.40;;;4.40;;
42066;SDS011;27734;47.028;28.820;2022-10-18T15:16:20;16.65;;;4.35;;
42066;SDS011;27734;47.028;28.820;2022-10-18T15:19:02;15.97;;;4.87;;
42066;SDS011;27734;47.028;28.820;2022-10-18T15:21:34;14.43;;;4.73;;
42066;SDS011;27734;47.028;28.820;2022-10-18T15:24:19;16.17;;;4.30;;
42066;SDS011;27734;47.028;28.820;2022-10-18T15:26:55;16.60;;;4.77;;
42066;SDS011;27734;47.028;28.820;2022-10-18T15:29:29;9.97;;;4.30;;
42066;SDS011;27734;47.028;28.820;2022-10-18T15:32:04;15.67;;;4.10;;
42066;SDS011;27734;47.028;28.820;2022-10-18T15:34:39;12.57;;;4.47;;
42066;SDS011;27734;47.028;28.820;2022-10-18T15:37:16;11.13;;;4.37;;
42066;SDS011;27734;47.028;28.820;2022-10-18T15:43:01;13.63;;;4.50;;
42066;SDS011;27734;47.028;28.820;2022-10-18T15:45:33;8.87;;;4.20;;
42066;SDS011;27734;47.028;28.820;2022-10-18T15:48:16;13.43;;;4.77;;
42066;SDS011;27734;47.028;28.820;2022-10-18T15:53:22;15.00;;;4.90;;
42066;SDS011;27734;47.028;28.820;2022-10-18T15:55:57;12.73;;;4.30;;
42066;SDS011;27734;47.028;28.820;2022-10-18T15:58:35;15.90;;;5.10;;
42066;SDS011;27734;47.028;28.820;2022-10-18T16:01:07;12.23;;;4.50;;
42066;SDS011;27734;47.028;28.820;2022-10-18T16:03:42;14.20;;;5.00;;
42066;SDS011;27734;47.028;28.820;2022-10-18T16:06:12;16.83;;;5.57;;
42066;SDS011;27734;47.028;28.820;2022-10-18T16:08:42;14.00;;;4.90;;
42066;SDS011;27734;47.028;28.820;2022-10-18T16:11:13;19.83;;;5.33;;
42066;SDS011;27734;47.028;28.820;2022-10-18T16:13:42;15.27;;;4.87;;
42066;SDS011;27734;47.028;28.820;2022-10-18T16:16:15;14.30;;;5.23;;
42066;SDS011;27734;47.028;28.820;2022-10-18T16:18:46;16.30;;;5.20;;
42066;SDS011;27734;47.028;28.820;2022-10-18T16:21:21;12.73;;;4.60;;
42066;SDS011;27734;47.028;28.820;2022-10-18T16:23:51;14.20;;;4.93;;
42066;SDS011;27734;47.028;28.820;2022-10-18T16:26:20;12.73;;;4.63;;
42066;SDS011;27734;47.028;28.820;2022-10-18T16:28:50;13.97;;;4.60;;
42066;SDS011;27734;47.028;28.820;2022-10-18T16:31:20;12.10;;;4.73;;
42066;SDS011;27734;47.028;28.820;2022-10-18T16:33:49;11.97;;;4.77;;
42066;SDS011;27734;47.028;28.820;2022-10-18T16:36:19;13.50;;;4.80;;
42066;SDS011;27734;47.028;28.820;2022-10-18T16:38:49;13.43;;;4.90;;
42066;SDS011;27734;47.028;28.820;2022-10-18T16:41:18;8.40;;;4.30;;
42066;SDS011;27734;47.028;28.820;2022-10-18T16:43:47;14.95;;;4.35;;
42066;SDS011;27734;47.028;28.820;2022-10-18T16:46:16;11.60;;;4.70;;
42066;SDS011;27734;47.028;28.820;2022-10-18T16:48:47;13.17;;;4.53;;
42066;SDS011;27734;47.028;28.820;2022-10-18T16:51:17;12.60;;;4.73;;
42066;SDS011;27734;47.028;28.820;2022-10-18T16:53:50;15.13;;;5.20;;
42066;SDS011;27734;47.028;28.820;2022-10-18T16:56:20;13.77;;;4.70;;
42066;SDS011;27734;47.028;28.820;2022-10-18T16:58:51;13.70;;;5.50;;
42066;SDS011;27734;47.028;28.820;2022-10-18T17:01:20;14.10;;;5.27;;
42066;SDS011;27734;47.028;28.820;2022-10-18T17:03:49;10.43;;;4.90;;
42066;SDS011;27734;47.028;28.820;2022-10-18T17:06:19;12.23;;;4.93;;
42066;SDS011;27734;47.028;28.820;2022-10-18T17:08:49;12.20;;;5.47;;
42066;SDS011;27734;47.028;28.820;2022-10-18T17:11:22;15.27;;;5.20;;
42066;SDS011;27734;47.028;28.820;2022-10-18T17:13:52;15.13;;;5.43;;
42066;SDS011;27734;47.028;28.820;2022-10-18T17:16:23;15.45;;;5.65;;
42066;SDS011;27734;47.028;28.820;2022-10-18T17:18:54;14.63;;;5.80;;
42066;SDS011;27734;47.028;28.820;2022-10-18T17:21:24;13.67;;;5.90;;
42066;SDS011;27734;47.028;28.820;2022-10-18T17:23:54;17.50;;;5.85;;
42066;SDS011;27734;47.028;28.820;2022-10-18T17:26:26;13.25;;;5.45;;
42066;SDS011;27734;47.028;28.820;2022-10-18T17:28:55;14.80;;;5.87;;
42066;SDS011;27734;47.028;28.820;2022-10-18T17:31:25;14.30;;;5.63;;
42066;SDS011;27734;47.028;28.820;2022-10-18T17:33:54;15.20;;;5.70;;
42066;SDS011;27734;47.028;28.820;2022-10-18T17:36:25;14.20;;;5.57;;
42066;SDS011;27734;47.028;28.820;2022-10-18T17:38:53;20.77;;;5.70;;
42066;SDS011;27734;47.028;28.820;2022-10-18T17:41:23;19.40;;;6.10;;
42066;SDS011;27734;47.028;28.820;2022-10-18T17:43:51;12.20;;;5.30;;
42066;SDS011;27734;47.028;28.820;2022-10-18T17:46:20;16.47;;;6.03;;
42066;SDS011;27734;47.028;28.820;2022-10-18T17:48:49;15.20;;;5.87;;
42066;SDS011;27734;47.028;28.820;2022-10-18T17:51:17;18.83;;;6.40;;
42066;SDS011;27734;47.028;28.820;2022-10-18T17:53:45;17.27;;;6.80;;
42066;SDS011;27734;47.028;28.820;2022-10-18T17:56:14;15.17;;;6.53;;
42066;SDS011;27734;47.028;28.820;2022-10-18T17:58:43;15.47;;;6.17;;
42066;SDS011;27734;47.028;28.820;2022-10-18T18:01:13;16.87;;;6.40;;
42066;SDS011;27734;47.028;28.820;2022-10-18T18:03:45;19.53;;;6.87;;
42066;SDS011;27734;47.028;28.820;2022-10-18T18:06:15;16.53;;;5.90;;
42066;SDS011;27734;47.028;28.820;2022-10-18T18:08:48;17.87;;;6.15;;
42066;SDS011;27734;47.028;28.820;2022-10-18T18:11:20;14.53;;;6.47;;